createdAt,value
2019-03-25T00:04:06.940Z,0.61
2019-03-25T00:09:07.183Z,0.64
2019-03-25T00:13:07.133Z,0.6
2019-03-25T00:18:07.291Z,0.58
2019-03-25T00:23:07.222Z,0.06
2019-03-25T00:28:07.021Z,-0.01
2019-03-25T00:33:07.388Z,0.05
2019-03-25T00:38:07.136Z,-0.11
2019-03-25T00:43:07.161Z,0.44
2019-03-25T00:48:06.845Z,0.76
2019-03-25T00:52:07.135Z,0.54
2019-03-25T00:57:06.809Z,-0.14
2019-03-25T01:02:07.965Z,-0.5
2019-03-25T01:07:06.726Z,-0.22
2019-03-25T01:12:06.947Z,-0.32
2019-03-25T01:17:06.586Z,-0.73
2019-03-25T01:22:06.216Z,-0.66
2019-03-25T01:26:07.157Z,-0.4
2019-03-25T01:31:07.184Z,-0.1
2019-03-25T01:36:06.813Z,0.29
2019-03-25T01:41:06.942Z,0.67
2019-03-25T01:46:07.076Z,0.67
2019-03-25T01:51:06.782Z,0.62
2019-03-25T01:56:07.441Z,0.66
2019-03-25T02:01:07.030Z,0.72
2019-03-25T02:06:08.456Z,0.72
2019-03-25T02:10:07.520Z,0.88
2019-03-25T02:15:09.090Z,0.99
2019-03-25T02:20:06.938Z,0.79
2019-03-25T02:25:06.701Z,0.64
2019-03-25T02:30:08.656Z,0.57
2019-03-25T02:35:07.214Z,0.71
2019-03-25T02:40:07.197Z,1.16
2019-03-25T02:44:06.596Z,1.53
2019-03-25T02:49:06.836Z,1.69
2019-03-25T02:54:06.607Z,2.13
2019-03-25T02:59:06.430Z,2.52
2019-03-25T03:04:06.930Z,2.72
2019-03-25T03:09:07.232Z,2.89
2019-03-25T03:14:07.110Z,2.94
2019-03-25T03:19:06.675Z,2.88
2019-03-25T03:23:07.049Z,2.85
2019-03-25T03:28:06.823Z,2.69
2019-03-25T03:33:06.916Z,2.54
2019-03-25T03:38:06.630Z,2.39
2019-03-25T03:43:06.944Z,2.21
2019-03-25T03:48:07.358Z,2.24
2019-03-25T03:53:07.112Z,2.06
2019-03-25T03:57:06.807Z,1.6
2019-03-25T04:02:06.237Z,1.48
2019-03-25T04:07:07.492Z,1.32
2019-03-25T04:12:06.388Z,0.94
2019-03-25T04:17:07.985Z,0.75
2019-03-25T04:22:06.733Z,0.68
2019-03-25T04:27:07.517Z,0.54
2019-03-25T04:31:07.250Z,0.4
2019-03-25T04:36:06.683Z,0.37
2019-03-25T04:41:07.100Z,0.57
2019-03-25T04:46:06.356Z,0.55
2019-03-25T04:51:07.494Z,1.06
2019-03-25T04:56:07.021Z,1.76
2019-03-25T05:01:06.981Z,2.1
2019-03-25T05:06:07.707Z,2.16
2019-03-25T05:10:07.073Z,2.35
2019-03-25T05:15:08.027Z,2.56
2019-03-25T05:20:06.732Z,2.7
2019-03-25T05:25:08.932Z,2.78
2019-03-25T05:30:07.825Z,2.87
2019-03-25T05:35:07.147Z,3.08
2019-03-25T05:40:08.101Z,3.26
2019-03-25T05:45:09.895Z,3.33
2019-03-25T05:49:07.162Z,3.35
2019-03-25T05:54:07.026Z,3.34
2019-03-25T05:59:06.746Z,3.42
2019-03-25T06:04:07.816Z,3.4
2019-03-25T06:09:08.076Z,3.38
2019-03-25T06:14:07.801Z,2.94
2019-03-25T06:19:07.430Z,2.6
2019-03-25T06:23:06.984Z,2.6
2019-03-25T06:28:07.659Z,2.94
2019-03-25T06:33:13.703Z,2.89
2019-03-25T06:38:07.408Z,2.71
2019-03-25T06:43:07.361Z,2.59
2019-03-25T06:48:08.103Z,2.52
2019-03-25T06:53:07.821Z,2.53
2019-03-25T06:57:06.557Z,2.49
2019-03-25T07:02:07.701Z,2.51
2019-03-25T07:07:07.453Z,2.52
2019-03-25T07:12:07.625Z,2.59
2019-03-25T07:17:08.122Z,2.71
2019-03-25T07:22:07.891Z,2.87
2019-03-25T07:27:07.670Z,3
2019-03-25T07:31:06.948Z,2.87
2019-03-25T07:36:06.663Z,2.96
2019-03-25T07:41:06.820Z,3.09
2019-03-25T07:46:06.347Z,3.14
2019-03-25T07:51:07.077Z,3.2
2019-03-25T07:56:06.771Z,3.28
2019-03-25T08:00:13.340Z,3.36
2019-03-25T08:05:06.817Z,3.74
2019-03-25T08:10:07.040Z,4.04
2019-03-25T08:15:08.416Z,4.24
2019-03-25T08:20:07.035Z,4.42
2019-03-25T08:25:06.805Z,5.01
2019-03-25T08:30:07.886Z,4.82
2019-03-25T08:34:07.305Z,4.45
2019-03-25T08:39:07.277Z,4.77
2019-03-25T08:44:07.059Z,4.71
2019-03-25T08:49:06.892Z,4.75
2019-03-25T08:54:06.626Z,4.63
2019-03-25T08:59:07.436Z,4.94
2019-03-25T09:04:06.920Z,5.77
2019-03-25T09:08:06.774Z,5.93
2019-03-25T09:13:06.872Z,5.81
2019-03-25T09:18:06.650Z,5.62
2019-03-25T09:23:07.550Z,5.53
2019-03-25T09:28:07.207Z,5.32
2019-03-25T09:33:07.495Z,5.38
2019-03-25T09:37:07.811Z,5.79
2019-03-25T09:42:07.930Z,5.69
2019-03-25T09:47:07.471Z,5.55
2019-03-25T09:52:07.221Z,5.96
2019-03-25T09:57:07.992Z,7.25
2019-03-25T10:02:07.482Z,6.98
2019-03-25T10:07:07.313Z,7.52
2019-03-25T10:12:07.490Z,7.79
2019-03-25T10:16:07.534Z,6.6
2019-03-25T10:21:07.327Z,6.82
2019-03-25T10:26:08.082Z,6.73
2019-03-25T10:31:07.732Z,6.65
2019-03-25T10:36:07.410Z,6.97
2019-03-25T10:41:07.439Z,7.39
2019-03-25T10:46:07.950Z,7.75
2019-03-25T10:50:06.804Z,7.34
2019-03-25T10:55:07.637Z,8.91
2019-03-25T11:00:08.539Z,7.96
2019-03-25T11:05:06.985Z,7.89
2019-03-25T11:10:07.157Z,7.72
2019-03-25T11:15:07.707Z,8.3
2019-03-25T11:20:06.870Z,8.98
2019-03-25T11:24:07.550Z,9.22
2019-03-25T11:29:09.792Z,9.41
2019-03-25T11:34:07.721Z,9.24
2019-03-25T11:39:07.929Z,8.94
2019-03-25T11:44:07.808Z,8.45
2019-03-25T11:49:07.291Z,9.46
2019-03-25T11:54:08.037Z,9.81
2019-03-25T11:58:06.956Z,8.22
2019-03-25T12:03:07.625Z,8.06
2019-03-25T12:08:07.363Z,9.24
2019-03-25T12:13:07.654Z,7.77
2019-03-25T12:18:07.996Z,7.54
2019-03-25T12:23:07.842Z,8.08
2019-03-25T12:27:06.809Z,8.51
2019-03-25T12:32:07.610Z,9.12
2019-03-25T12:37:07.420Z,9.46
2019-03-25T12:42:06.730Z,10.13
2019-03-25T12:47:07.107Z,8.51
2019-03-25T12:52:06.898Z,7.46
2019-03-25T12:57:06.639Z,9.96
2019-03-25T13:02:07.996Z,10.24
2019-03-25T13:06:06.923Z,9.52
2019-03-25T13:11:07.931Z,9.46
2019-03-25T13:16:07.118Z,8.37
2019-03-25T13:21:06.893Z,8.64
2019-03-25T13:26:06.616Z,10.26
2019-03-25T13:31:07.327Z,9.21
2019-03-25T13:35:06.486Z,8.24
2019-03-25T13:40:06.562Z,7.44
2019-03-25T13:45:08.392Z,7.58
2019-03-25T13:50:06.704Z,7.08
2019-03-25T13:55:07.462Z,6.16
2019-03-25T14:00:08.771Z,4.91
2019-03-25T14:04:07.156Z,4.92
2019-03-25T14:09:07.762Z,5.06
2019-03-25T14:14:08.170Z,4.98
2019-03-25T14:19:06.731Z,4.9
2019-03-25T14:24:08.144Z,4.74
2019-03-25T14:29:07.295Z,4.72
2019-03-25T14:34:07.341Z,4.6
2019-03-25T14:38:07.068Z,4.36
2019-03-25T14:43:06.330Z,4.28
2019-03-25T14:48:06.786Z,4.33
2019-03-25T14:53:06.568Z,4.57
2019-03-25T14:58:06.436Z,4.49
2019-03-25T15:03:07.505Z,4.62
2019-03-25T15:08:06.615Z,4.93
2019-03-25T15:13:07.396Z,5.09
2019-03-25T15:17:06.468Z,5.61
2019-03-25T15:22:07.074Z,5.07
2019-03-25T15:27:06.729Z,5.11
2019-03-25T15:32:06.487Z,5.17
2019-03-25T15:37:07.206Z,5.08
2019-03-25T15:42:06.369Z,5.05
2019-03-25T15:46:07.428Z,5.16
2019-03-25T15:51:07.512Z,5.32
2019-03-25T15:56:08.011Z,5.4
2019-03-25T16:01:07.147Z,5.91
2019-03-25T16:06:06.953Z,5.76
2019-03-25T16:11:07.149Z,6.42
2019-03-25T16:16:07.997Z,7.03
2019-03-25T16:21:07.162Z,6.55
2019-03-25T16:25:06.340Z,6.06
2019-03-25T16:30:08.670Z,6.51
2019-03-25T16:35:07.370Z,6.2
2019-03-25T16:40:06.530Z,5.92
2019-03-25T16:45:07.758Z,5.75
2019-03-25T16:50:06.674Z,5.7
2019-03-25T16:54:08.163Z,5.86
2019-03-25T16:59:07.481Z,5.41
2019-03-25T17:04:06.923Z,4.78
2019-03-25T17:09:07.188Z,4.47
2019-03-25T17:14:07.339Z,4.5
2019-03-25T17:19:06.579Z,4.46
2019-03-25T17:24:07.154Z,4.28
2019-03-25T17:28:08.285Z,4.09
2019-03-25T17:33:07.342Z,3.83
2019-03-25T17:38:06.771Z,3.48
2019-03-25T17:43:08.149Z,3.08
2019-03-25T17:48:06.555Z,3.18
2019-03-25T17:53:06.344Z,3.05
2019-03-25T17:57:08.164Z,2.93
2019-03-25T18:02:08.063Z,3
2019-03-25T18:07:06.887Z,3.25
2019-03-25T18:12:07.453Z,3.61
2019-03-25T18:17:07.633Z,3.63
2019-03-25T18:22:06.822Z,3.9
2019-03-25T18:27:07.159Z,4.05
2019-03-25T18:32:06.923Z,4.17
2019-03-25T18:36:07.348Z,3.89
2019-03-25T18:41:06.870Z,3.64
2019-03-25T18:46:06.424Z,3.5
2019-03-25T18:51:07.192Z,3.23
2019-03-25T18:56:07.003Z,3.02
2019-03-25T19:01:06.626Z,2.65
2019-03-25T19:06:07.151Z,2.84
2019-03-25T19:11:06.675Z,3.08
2019-03-25T19:15:09.442Z,3.35
2019-03-25T19:20:06.614Z,3.19
2019-03-25T19:25:07.476Z,3.29
2019-03-25T19:30:07.738Z,3.45
2019-03-25T19:35:07.629Z,3.35
2019-03-25T19:40:07.255Z,3.32
2019-03-25T19:45:08.387Z,3.26
2019-03-25T19:49:06.865Z,3.16
2019-03-25T19:54:06.575Z,3.28
2019-03-25T19:59:06.502Z,3.41
2019-03-25T20:04:07.565Z,3.61
2019-03-25T20:09:07.667Z,3.7
2019-03-25T20:14:07.534Z,3.68
2019-03-25T20:19:08.128Z,3.69
2019-03-25T20:24:08.137Z,3.76
2019-03-25T20:28:07.329Z,3.79
2019-03-25T20:33:07.559Z,3.71
2019-03-25T20:38:07.385Z,3.63
2019-03-25T20:43:06.792Z,3.73
2019-03-25T20:48:06.584Z,3.69
2019-03-25T20:53:06.603Z,3.76
2019-03-25T20:58:06.616Z,3.75
2019-03-25T21:02:06.669Z,3.76
2019-03-25T21:07:07.607Z,3.57
2019-03-25T21:12:06.913Z,3.32
2019-03-25T21:17:06.939Z,3.13
2019-03-25T21:22:06.951Z,2.83
2019-03-25T21:27:06.902Z,2.53
2019-03-25T21:32:06.737Z,2.3
2019-03-25T21:36:07.179Z,2.21
2019-03-25T21:41:06.442Z,1.8
2019-03-25T21:46:06.794Z,1.63
2019-03-25T21:51:06.694Z,1.57
2019-03-25T21:56:06.668Z,1.51
2019-03-25T22:01:06.932Z,1.46
2019-03-25T22:06:06.605Z,1.41
2019-03-25T22:10:06.531Z,1.33
2019-03-25T22:15:07.420Z,1.26
2019-03-25T22:20:06.869Z,1.16
2019-03-25T22:25:06.585Z,1.11
2019-03-25T22:30:07.556Z,1.21
2019-03-25T22:35:07.009Z,1.08
2019-03-25T22:40:07.159Z,1.04
2019-03-25T22:44:07.642Z,1.01
2019-03-25T22:49:08.009Z,0.89
2019-03-25T22:54:07.758Z,0.79
2019-03-25T22:59:07.329Z,0.65
2019-03-25T23:04:07.061Z,0.72
2019-03-25T23:09:07.445Z,0.64
2019-03-25T23:14:07.077Z,0.68
2019-03-25T23:18:06.916Z,0.54
2019-03-25T23:23:06.721Z,0.69
2019-03-25T23:28:07.459Z,0.8
2019-03-25T23:33:06.742Z,0.67
2019-03-25T23:38:06.629Z,0.53
2019-03-25T23:43:06.889Z,0.4
2019-03-25T23:48:07.420Z,0.07
2019-03-25T23:53:07.260Z,-0.3
2019-03-25T23:57:06.946Z,-0.09
